createdAt,value
2019-04-10T00:01:34.102Z,94.90
2019-04-10T00:04:07.131Z,94.90
2019-04-10T00:06:39.570Z,95.10
2019-04-10T00:09:11.855Z,95.00
2019-04-10T00:11:45.072Z,95.00
2019-04-10T00:14:17.176Z,95.10
2019-04-10T00:16:49.265Z,95.10
2019-04-10T00:19:22.400Z,95.00
2019-04-10T00:21:54.460Z,95.30
2019-04-10T00:24:28.093Z,95.10
2019-04-10T00:27:00.223Z,95.10
2019-04-10T00:29:33.138Z,95.10
2019-04-10T00:32:05.740Z,95.10
2019-04-10T00:34:37.964Z,95.10
2019-04-10T00:37:21.299Z,95.10
2019-04-10T00:39:44.527Z,95.10
2019-04-10T00:42:16.955Z,95.10
2019-04-10T00:44:50.068Z,94.80
2019-04-10T00:47:23.201Z,95.00
2019-04-10T00:49:55.790Z,94.80
2019-04-10T00:52:28.200Z,95.00
2019-04-10T00:55:01.504Z,95.10
2019-04-10T00:57:34.253Z,95.00
2019-04-10T01:00:07.078Z,94.70
2019-04-10T01:02:39.191Z,94.90
2019-04-10T01:05:11.412Z,95.00
2019-04-10T01:07:44.683Z,94.90
2019-04-10T01:10:17.876Z,94.70
2019-04-10T01:12:50.014Z,94.70
2019-04-10T01:15:22.603Z,94.70
2019-04-10T01:17:55.161Z,94.80
2019-04-10T01:20:27.713Z,94.70
2019-04-10T01:22:59.829Z,94.70
2019-04-10T01:25:32.543Z,94.60
2019-04-10T01:28:04.695Z,94.70
2019-04-10T01:30:38.116Z,94.70
2019-04-10T01:33:10.358Z,94.90
2019-04-10T01:35:42.587Z,95.00
2019-04-10T01:38:15.514Z,95.00
2019-04-10T01:40:47.959Z,95.00
2019-04-10T01:43:20.103Z,94.90
2019-04-10T01:45:52.186Z,94.70
2019-04-10T01:48:24.231Z,94.90
2019-04-10T01:50:57.080Z,94.90
2019-04-10T01:53:30.054Z,95.00
2019-04-10T01:56:03.085Z,95.10
2019-04-10T01:58:35.284Z,95.10
2019-04-10T02:01:30.427Z,95.00
2019-04-10T02:04:02.694Z,94.90
2019-04-10T02:06:35.770Z,94.60
2019-04-10T02:09:11.257Z,94.80
2019-04-10T02:11:43.374Z,94.90
2019-04-10T02:14:16.225Z,94.90
2019-04-10T02:16:49.354Z,95.00
2019-04-10T02:19:21.868Z,94.80
2019-04-10T02:21:54.170Z,94.80
2019-04-10T02:24:27.227Z,94.80
2019-04-10T02:27:00.257Z,94.90
2019-04-10T02:29:33.517Z,95.10
2019-04-10T02:32:06.218Z,95.20
2019-04-10T02:34:39.403Z,95.30
2019-04-10T02:37:12.804Z,95.30
2019-04-10T02:39:48.402Z,95.10
2019-04-10T02:42:20.672Z,95.20
2019-04-10T02:44:54.184Z,95.20
2019-04-10T02:47:28.237Z,95.30
2019-04-10T02:50:00.812Z,95.30
2019-04-10T02:52:34.920Z,95.40
2019-04-10T02:55:09.898Z,95.50
2019-04-10T02:57:43.598Z,95.50
2019-04-10T03:00:18.119Z,95.60
2019-04-10T03:02:51.948Z,95.60
2019-04-10T03:05:25.712Z,95.70
2019-04-10T03:07:59.915Z,95.40
2019-04-10T03:10:38.908Z,95.60
2019-04-10T03:13:06.332Z,96.00
2019-04-10T03:15:39.207Z,95.50
2019-04-10T03:18:11.373Z,95.50
2019-04-10T03:20:44.640Z,95.30
2019-04-10T03:23:17.640Z,95.40
2019-04-10T03:25:50.883Z,95.30
2019-04-10T03:28:23.570Z,95.30
2019-04-10T03:30:58.147Z,95.50
2019-04-10T03:33:55.862Z,95.50
2019-04-10T03:36:37.869Z,95.60
2019-04-10T03:39:11.071Z,95.60
2019-04-10T03:41:44.316Z,95.80
2019-04-10T03:44:16.818Z,95.80
2019-04-10T03:46:49.078Z,96.00
2019-04-10T03:49:22.073Z,96.10
2019-04-10T03:51:54.653Z,96.20
2019-04-10T03:54:27.801Z,96.40
2019-04-10T03:57:00.415Z,96.40
2019-04-10T03:59:32.707Z,96.30
2019-04-10T04:02:05.314Z,96.30
2019-04-10T04:04:37.696Z,96.20
2019-04-10T04:07:09.790Z,96.20
2019-04-10T04:09:41.948Z,96.40
2019-04-10T04:12:14.729Z,96.40
2019-04-10T04:14:48.437Z,96.20
2019-04-10T04:17:22.132Z,96.20
2019-04-10T04:19:54.595Z,96.30
2019-04-10T04:22:28.311Z,96.30
2019-04-10T04:25:00.574Z,96.00
2019-04-10T04:27:33.571Z,96.00
2019-04-10T04:30:06.500Z,96.10
2019-04-10T04:32:38.569Z,96.10
2019-04-10T04:35:11.209Z,96.10
2019-04-10T04:37:44.236Z,96.20
2019-04-10T04:40:17.415Z,96.10
2019-04-10T04:42:49.886Z,96.10
2019-04-10T04:45:22.009Z,96.10
2019-04-10T04:47:54.080Z,96.10
2019-04-10T04:50:27.057Z,96.00
2019-04-10T04:53:00.401Z,96.10
2019-04-10T04:55:33.178Z,96.20
2019-04-10T04:58:06.198Z,96.20
2019-04-10T05:00:39.494Z,96.00
2019-04-10T05:03:12.071Z,96.00
2019-04-10T05:05:44.575Z,95.80
2019-04-10T05:08:17.702Z,95.70
2019-04-10T05:10:50.239Z,95.70
2019-04-10T05:13:24.368Z,95.70
2019-04-10T05:15:57.503Z,95.50
2019-04-10T05:18:30.312Z,95.10
2019-04-10T05:21:03.059Z,94.90
2019-04-10T05:23:36.947Z,94.90
2019-04-10T05:26:10.146Z,95.00
2019-04-10T05:28:42.553Z,95.10
2019-04-10T05:31:15.445Z,95.30
2019-04-10T05:33:47.519Z,95.50
2019-04-10T05:36:19.950Z,95.30
2019-04-10T05:38:52.578Z,94.80
2019-04-10T05:41:25.950Z,95.00
2019-04-10T05:43:58.605Z,94.90
2019-04-10T05:46:32.496Z,94.90
2019-04-10T05:49:05.217Z,94.80
2019-04-10T05:51:37.491Z,95.00
2019-04-10T05:54:10.551Z,94.90
2019-04-10T05:56:42.985Z,94.90
2019-04-10T05:59:16.454Z,94.40
2019-04-10T06:01:49.046Z,94.60
2019-04-10T06:04:22.136Z,94.80
2019-04-10T06:06:54.876Z,94.30
2019-04-10T06:09:26.950Z,94.10
2019-04-10T06:12:00.117Z,94.10
2019-04-10T06:14:32.629Z,94.20
2019-04-10T06:17:05.993Z,93.60
2019-04-10T06:19:38.066Z,93.50
2019-04-10T06:22:11.230Z,93.80
2019-04-10T06:24:44.567Z,92.90
2019-04-10T06:27:18.421Z,92.60
2019-04-10T06:29:50.976Z,92.80
2019-04-10T06:32:23.266Z,92.40
2019-04-10T06:34:56.100Z,92.40
2019-04-10T06:37:28.633Z,92.40
2019-04-10T06:40:10.753Z,92.10
2019-04-10T06:42:46.164Z,92.10
2019-04-10T06:45:09.560Z,91.90
2019-04-10T06:47:42.478Z,92.20
2019-04-10T06:50:15.433Z,92.20
2019-04-10T06:52:49.251Z,92.30
2019-04-10T06:55:22.287Z,92.50
2019-04-10T06:57:57.750Z,92.00
2019-04-10T07:00:30.564Z,92.00
2019-04-10T07:03:03.167Z,92.40
2019-04-10T07:05:41.356Z,92.00
2019-04-10T07:08:16.053Z,92.00
2019-04-10T07:10:52.105Z,92.00
2019-04-10T07:13:17.612Z,91.90
2019-04-10T07:15:54.454Z,92.20
2019-04-10T07:18:24.810Z,91.70
2019-04-10T07:20:59.887Z,91.60
2019-04-10T07:23:33.128Z,91.40
2019-04-10T07:26:06.009Z,90.90
2019-04-10T07:28:41.512Z,90.90
2019-04-10T07:31:13.049Z,91.50
2019-04-10T07:33:50.128Z,90.60
2019-04-10T07:36:20.348Z,89.30
2019-04-10T07:38:55.702Z,88.60
2019-04-10T07:41:27.298Z,87.80
2019-04-10T07:44:05.866Z,88.60
2019-04-10T07:46:38.275Z,88.60
2019-04-10T07:49:10.598Z,87.60
2019-04-10T07:51:47.255Z,87.00
2019-04-10T07:54:21.206Z,85.60
2019-04-10T07:56:52.995Z,86.20
2019-04-10T07:59:25.540Z,87.30
2019-04-10T08:01:58.056Z,86.90
2019-04-10T08:04:35.315Z,85.90
2019-04-10T08:07:07.430Z,84.20
2019-04-10T08:09:39.955Z,83.40
2019-04-10T08:12:13.846Z,82.90
2019-04-10T08:14:46.381Z,81.60
2019-04-10T08:17:19.674Z,82.80
2019-04-10T08:19:51.755Z,82.10
2019-04-10T08:22:24.593Z,81.10
2019-04-10T08:24:57.990Z,81.60
2019-04-10T08:27:30.053Z,82.10
2019-04-10T08:30:03.204Z,78.90
2019-04-10T08:32:47.296Z,79.90
2019-04-10T08:35:11.099Z,78.90
2019-04-10T08:37:43.310Z,79.60
2019-04-10T08:40:16.758Z,78.70
2019-04-10T08:42:49.473Z,79.10
2019-04-10T08:45:21.586Z,78.20
2019-04-10T08:47:54.053Z,79.60
2019-04-10T08:50:26.140Z,79.50
2019-04-10T08:52:59.905Z,78.50
2019-04-10T08:55:32.522Z,79.00
2019-04-10T08:58:06.196Z,79.50
2019-04-10T09:00:38.280Z,77.90
2019-04-10T09:03:10.926Z,77.60
2019-04-10T09:05:43.474Z,78.00
2019-04-10T09:08:16.970Z,79.60
2019-04-10T09:10:50.324Z,76.90
2019-04-10T09:13:22.558Z,79.30
2019-04-10T09:15:54.687Z,78.60
2019-04-10T09:18:27.559Z,78.90
2019-04-10T09:21:00.682Z,79.10
2019-04-10T09:23:40.938Z,78.60
2019-04-10T09:26:08.029Z,78.90
2019-04-10T09:28:40.629Z,77.70
2019-04-10T09:31:13.550Z,77.70
2019-04-10T09:33:47.347Z,78.80
2019-04-10T09:36:19.940Z,77.00
2019-04-10T09:38:52.808Z,78.60
2019-04-10T09:41:25.907Z,80.00
2019-04-10T09:43:58.482Z,79.40
2019-04-10T09:46:31.549Z,79.50
2019-04-10T09:49:05.398Z,80.10
2019-04-10T09:51:38.347Z,80.20
2019-04-10T09:54:10.921Z,81.30
2019-04-10T09:56:44.202Z,81.40
2019-04-10T09:59:18.062Z,80.20
2019-04-10T10:01:51.388Z,80.40
2019-04-10T10:04:23.695Z,81.20
2019-04-10T10:06:55.868Z,80.60
2019-04-10T10:09:29.254Z,80.00
2019-04-10T10:12:03.063Z,78.40
2019-04-10T10:14:35.848Z,79.00
2019-04-10T10:17:08.589Z,78.90
2019-04-10T10:19:41.164Z,78.80
2019-04-10T10:22:13.291Z,75.60
2019-04-10T10:24:46.748Z,75.30
2019-04-10T10:27:19.922Z,74.20
2019-04-10T10:29:53.541Z,73.20
2019-04-10T10:32:26.700Z,72.10
2019-04-10T10:34:58.913Z,73.60
2019-04-10T10:37:32.616Z,74.30
2019-04-10T10:40:08.367Z,71.80
2019-04-10T10:42:41.482Z,74.10
2019-04-10T10:45:14.681Z,71.80
2019-04-10T10:47:46.772Z,70.00
2019-04-10T10:50:19.511Z,68.00
2019-04-10T10:52:52.149Z,71.00
2019-04-10T10:55:25.409Z,70.70
2019-04-10T10:57:57.948Z,70.10
2019-04-10T11:00:31.416Z,71.40
2019-04-10T11:03:05.619Z,72.30
2019-04-10T11:05:38.275Z,72.80
2019-04-10T11:08:11.135Z,72.80
2019-04-10T11:10:48.012Z,73.30
2019-04-10T11:13:17.286Z,73.00
2019-04-10T11:15:49.965Z,70.60
2019-04-10T11:18:22.262Z,70.20
2019-04-10T11:21:00.665Z,69.80
2019-04-10T11:23:30.543Z,69.90
2019-04-10T11:26:04.689Z,71.10
2019-04-10T11:28:37.466Z,68.80
2019-04-10T11:31:11.053Z,70.60
2019-04-10T11:33:45.507Z,71.50
2019-04-10T11:36:17.892Z,72.10
2019-04-10T11:38:51.811Z,72.90
2019-04-10T11:41:26.037Z,74.50
2019-04-10T11:43:58.164Z,72.20
2019-04-10T11:46:32.151Z,69.20
2019-04-10T11:49:05.524Z,70.90
2019-04-10T11:51:39.020Z,69.00
2019-04-10T11:54:14.610Z,71.50
2019-04-10T11:56:48.302Z,70.20
2019-04-10T11:59:21.982Z,71.20
2019-04-10T12:02:00.131Z,70.20
2019-04-10T12:04:30.826Z,71.00
2019-04-10T12:07:03.823Z,69.50
2019-04-10T12:12:11.192Z,69.50
2019-04-10T12:14:43.771Z,70.10
2019-04-10T12:17:16.288Z,69.40
2019-04-10T12:19:48.752Z,67.90
2019-04-10T12:22:21.323Z,67.50
2019-04-10T12:24:54.362Z,66.70
2019-04-10T12:27:27.711Z,67.40
2019-04-10T12:30:00.211Z,68.60
2019-04-10T12:32:32.539Z,66.00
2019-04-10T12:35:06.738Z,65.50
2019-04-10T12:37:39.402Z,65.70
2019-04-10T12:40:11.910Z,66.80
2019-04-10T12:42:44.181Z,65.10
2019-04-10T12:45:17.734Z,65.00
2019-04-10T12:47:50.313Z,64.80
2019-04-10T12:50:22.603Z,65.60
2019-04-10T12:52:55.106Z,65.70
2019-04-10T12:55:28.242Z,64.00
2019-04-10T12:58:10.675Z,66.80
2019-04-10T13:00:36.071Z,66.10
2019-04-10T13:03:09.247Z,66.20
2019-04-10T13:05:41.342Z,62.50
2019-04-10T13:08:21.309Z,63.90
2019-04-10T13:10:48.006Z,63.10
2019-04-10T13:13:20.442Z,65.20
2019-04-10T13:15:54.080Z,64.70
2019-04-10T13:18:26.608Z,63.30
2019-04-10T13:20:59.555Z,66.20
2019-04-10T13:23:33.068Z,66.00
2019-04-10T13:26:07.432Z,66.40
2019-04-10T13:28:39.422Z,66.60
2019-04-10T13:31:11.565Z,64.50
2019-04-10T13:33:44.720Z,63.70
2019-04-10T13:36:17.647Z,64.60
2019-04-10T13:38:50.607Z,67.10
2019-04-10T13:41:24.094Z,67.40
2019-04-10T13:43:56.293Z,65.90
2019-04-10T13:46:28.984Z,65.50
2019-04-10T13:49:01.956Z,66.50
2019-04-10T13:51:35.118Z,67.20
2019-04-10T13:54:07.418Z,67.50
2019-04-10T13:56:41.275Z,67.70
2019-04-10T13:59:13.999Z,65.90
2019-04-10T14:01:48.101Z,65.90
2019-04-10T14:04:20.895Z,66.50
2019-04-10T14:06:53.581Z,67.10
2019-04-10T14:09:38.018Z,67.20
2019-04-10T14:12:01.677Z,66.40
2019-04-10T14:14:35.097Z,67.00
2019-04-10T14:17:07.539Z,67.10
2019-04-10T14:19:41.564Z,67.80
2019-04-10T14:22:14.047Z,67.00
2019-04-10T14:24:48.197Z,66.70
2019-04-10T14:27:25.612Z,65.20
2019-04-10T14:29:58.971Z,65.50
2019-04-10T14:32:39.654Z,65.60
2019-04-10T14:35:12.052Z,65.80
2019-04-10T14:37:45.430Z,66.20
2019-04-10T14:40:18.060Z,65.60
2019-04-10T14:42:51.463Z,64.80
2019-04-10T14:45:23.615Z,64.70
2019-04-10T14:47:56.820Z,65.20
2019-04-10T14:50:31.622Z,65.60
2019-04-10T14:53:04.109Z,66.50
2019-04-10T14:55:37.690Z,65.90
2019-04-10T14:58:20.434Z,65.40
2019-04-10T15:00:51.436Z,64.80
2019-04-10T15:03:24.412Z,64.60
2019-04-10T15:05:58.274Z,66.20
2019-04-10T15:08:31.458Z,65.50
2019-04-10T15:11:04.613Z,65.70
2019-04-10T15:13:36.691Z,66.30
2019-04-10T15:16:09.236Z,65.90
2019-04-10T15:18:42.305Z,65.90
2019-04-10T15:21:14.871Z,65.30
2019-04-10T15:23:47.197Z,65.50
2019-04-10T15:26:21.796Z,66.00
2019-04-10T15:28:54.293Z,65.90
2019-04-10T15:31:27.866Z,65.60
2019-04-10T15:34:01.392Z,63.90
2019-04-10T15:36:34.077Z,65.90
2019-04-10T15:39:09.030Z,64.60
2019-04-10T15:41:42.025Z,65.10
2019-04-10T15:44:15.376Z,63.70
2019-04-10T15:46:48.982Z,63.80
2019-04-10T15:49:22.823Z,64.00
2019-04-10T15:51:57.205Z,64.80
2019-04-10T15:54:30.024Z,64.70
2019-04-10T15:57:04.687Z,64.90
2019-04-10T15:59:37.179Z,64.80
2019-04-10T16:02:11.141Z,65.70
2019-04-10T16:04:44.425Z,65.70
2019-04-10T16:07:18.077Z,65.60
2019-04-10T16:09:54.769Z,66.10
2019-04-10T16:12:26.966Z,65.20
2019-04-10T16:15:00.551Z,65.70
2019-04-10T16:17:42.386Z,65.30
2019-04-10T16:20:33.745Z,65.90
2019-04-10T16:23:29.011Z,66.00
2019-04-10T16:26:01.439Z,65.90
2019-04-10T16:28:35.477Z,65.60
2019-04-10T16:31:08.516Z,66.10
2019-04-10T16:33:41.349Z,66.00
2019-04-10T16:36:13.815Z,66.20
2019-04-10T16:38:46.961Z,65.60
2019-04-10T16:41:19.437Z,66.50
2019-04-10T16:43:52.882Z,66.40
2019-04-10T16:46:24.976Z,66.80
2019-04-10T16:48:58.269Z,66.80
2019-04-10T16:51:30.824Z,65.50
2019-04-10T16:54:04.768Z,65.40
2019-04-10T16:56:38.048Z,65.30
2019-04-10T16:59:10.801Z,65.30
2019-04-10T17:01:44.833Z,66.20
2019-04-10T17:04:18.802Z,66.10
2019-04-10T17:06:52.573Z,66.50
2019-04-10T17:09:26.945Z,66.70
2019-04-10T17:11:59.773Z,67.00
2019-04-10T17:14:32.325Z,67.50
2019-04-10T17:17:10.387Z,67.70
2019-04-10T17:19:49.391Z,68.20
2019-04-10T17:22:29.177Z,67.80
2019-04-10T17:24:51.498Z,67.10
2019-04-10T17:27:23.987Z,67.20
2019-04-10T17:29:56.935Z,67.60
2019-04-10T17:32:31.280Z,67.10
2019-04-10T17:35:05.330Z,67.60
2019-04-10T17:37:40.234Z,67.50
2019-04-10T17:40:28.521Z,67.50
2019-04-10T17:42:49.906Z,67.60
2019-04-10T17:45:23.120Z,68.00
2019-04-10T17:47:56.502Z,68.10
2019-04-10T17:50:30.092Z,68.40
2019-04-10T17:53:05.119Z,69.00
2019-04-10T17:55:37.638Z,69.30
2019-04-10T17:58:11.495Z,69.20
2019-04-10T18:00:47.272Z,69.90
2019-04-10T18:03:19.763Z,70.40
2019-04-10T18:05:52.991Z,70.70
2019-04-10T18:08:27.130Z,70.90
2019-04-10T18:11:00.271Z,70.90
2019-04-10T18:13:34.161Z,70.80
2019-04-10T18:16:06.315Z,72.10
2019-04-10T18:18:39.950Z,72.70
2019-04-10T18:21:12.683Z,73.60
2019-04-10T18:23:44.751Z,74.00
2019-04-10T18:26:19.527Z,74.30
2019-04-10T18:28:50.603Z,73.50
2019-04-10T18:31:25.165Z,72.90
2019-04-10T18:33:57.195Z,72.80
2019-04-10T18:36:29.883Z,72.90
2019-04-10T18:39:02.180Z,73.10
2019-04-10T18:41:34.731Z,73.50
2019-04-10T18:44:07.150Z,73.30
2019-04-10T18:46:40.132Z,74.20
2019-04-10T18:49:13.543Z,74.20
2019-04-10T18:51:45.974Z,74.40
2019-04-10T18:54:19.243Z,74.30
2019-04-10T18:56:51.694Z,74.70
2019-04-10T18:59:42.864Z,75.00
2019-04-10T19:02:41.278Z,75.20
2019-04-10T19:05:27.941Z,75.70
2019-04-10T19:08:01.144Z,75.90
2019-04-10T19:10:34.653Z,76.30
2019-04-10T19:13:07.501Z,76.40
2019-04-10T19:15:40.483Z,76.80
2019-04-10T19:18:15.236Z,77.10
2019-04-10T19:20:49.177Z,77.70
2019-04-10T19:23:23.931Z,77.70
2019-04-10T19:25:56.783Z,77.70
2019-04-10T19:28:35.043Z,77.80
2019-04-10T19:31:18.894Z,78.60
2019-04-10T19:33:45.254Z,79.10
2019-04-10T19:36:17.487Z,78.80
2019-04-10T19:38:51.752Z,78.90
2019-04-10T19:41:31.157Z,78.60
2019-04-10T19:43:58.929Z,78.70
2019-04-10T19:46:31.601Z,79.20
2019-04-10T19:49:04.207Z,79.00
2019-04-10T19:51:38.434Z,79.20
2019-04-10T19:54:11.813Z,79.20
2019-04-10T19:56:44.587Z,79.30
2019-04-10T19:59:25.008Z,79.70
2019-04-10T20:02:00.283Z,79.50
2019-04-10T20:04:33.057Z,79.20
2019-04-10T20:07:05.403Z,79.40
2019-04-10T20:09:38.855Z,79.40
2019-04-10T20:12:11.260Z,79.50
2019-04-10T20:14:44.344Z,79.90
2019-04-10T20:17:17.029Z,80.70
2019-04-10T20:19:49.146Z,81.50
2019-04-10T20:22:21.557Z,80.90
2019-04-10T20:24:53.938Z,81.00
2019-04-10T20:27:26.286Z,80.90
2019-04-10T20:29:59.401Z,80.90
2019-04-10T20:32:32.350Z,80.40
2019-04-10T20:35:04.642Z,80.70
2019-04-10T20:37:36.666Z,81.70
2019-04-10T20:40:09.714Z,82.10
2019-04-10T20:42:42.626Z,82.30
2019-04-10T20:45:15.905Z,81.90
2019-04-10T20:47:49.716Z,82.50
2019-04-10T20:50:21.789Z,82.70
2019-04-10T20:52:53.773Z,82.80
2019-04-10T20:55:26.307Z,82.80
2019-04-10T20:57:58.219Z,83.00
2019-04-10T21:00:43.109Z,82.80
2019-04-10T21:03:15.835Z,83.00
2019-04-10T21:05:49.069Z,82.90
2019-04-10T21:08:22.057Z,82.50
2019-04-10T21:10:54.798Z,82.50
2019-04-10T21:13:26.765Z,82.30
2019-04-10T21:16:00.727Z,82.20
2019-04-10T21:18:33.548Z,82.20
2019-04-10T21:21:05.986Z,82.30
2019-04-10T21:23:38.212Z,82.50
2019-04-10T21:26:10.322Z,82.50
2019-04-10T21:28:43.690Z,82.70
2019-04-10T21:31:34.274Z,82.90
2019-04-10T21:34:21.731Z,83.00
2019-04-10T21:36:54.484Z,82.90
2019-04-10T21:39:27.619Z,82.90
2019-04-10T21:42:12.080Z,82.90
2019-04-10T21:44:33.704Z,83.10
2019-04-10T21:47:06.306Z,83.20
2019-04-10T21:49:40.016Z,83.10
2019-04-10T21:52:12.135Z,83.50
2019-04-10T21:54:51.093Z,83.60
2019-04-10T21:57:18.246Z,83.60
2019-04-10T21:59:51.610Z,83.50
2019-04-10T22:02:24.155Z,83.50
2019-04-10T22:04:57.421Z,83.60
2019-04-10T22:07:54.965Z,83.50
2019-04-10T22:10:32.309Z,83.70
2019-04-10T22:13:06.321Z,83.90
2019-04-10T22:15:41.454Z,83.90
2019-04-10T22:18:14.778Z,84.10
2019-04-10T22:20:47.974Z,83.90
2019-04-10T22:23:20.451Z,83.90
2019-04-10T22:25:52.565Z,83.80
2019-04-10T22:28:25.365Z,83.70
2019-04-10T22:30:58.101Z,84.00
2019-04-10T22:33:30.078Z,83.90
2019-04-10T22:36:02.375Z,84.80
2019-04-10T22:38:34.314Z,84.50
2019-04-10T22:41:18.692Z,84.50
2019-04-10T22:43:40.767Z,84.30
2019-04-10T22:46:13.129Z,84.30
2019-04-10T22:48:45.751Z,84.10
2019-04-10T22:51:19.225Z,83.90
2019-04-10T22:53:51.591Z,84.00
2019-04-10T22:56:25.087Z,84.00
2019-04-10T22:58:58.096Z,84.00
2019-04-10T23:01:31.303Z,84.30
2019-04-10T23:04:04.196Z,84.40
2019-04-10T23:06:37.531Z,84.40
2019-04-10T23:09:13.847Z,84.90
2019-04-10T23:11:46.931Z,85.40
2019-04-10T23:14:18.968Z,85.50
2019-04-10T23:16:52.492Z,85.80
2019-04-10T23:19:24.490Z,85.70
2019-04-10T23:21:56.886Z,86.00
2019-04-10T23:24:29.780Z,86.60
2019-04-10T23:27:02.011Z,85.90
2019-04-10T23:29:36.003Z,85.90
2019-04-10T23:32:08.414Z,85.90
2019-04-10T23:34:41.004Z,86.50
2019-04-10T23:37:12.975Z,87.20
2019-04-10T23:39:46.162Z,86.80
2019-04-10T23:42:19.138Z,86.90
2019-04-10T23:44:51.851Z,87.30
2019-04-10T23:47:24.287Z,87.60
2019-04-10T23:49:56.230Z,87.00
2019-04-10T23:52:28.143Z,86.80
2019-04-10T23:55:00.153Z,87.00
2019-04-10T23:57:33.506Z,87.30
